Flight Track Log - Related Links

Times and Time Zones

All times are in EDT time to prevent confusion due to time zone crossing. See the UAL432 flight status page for this flight to view local times or setup timezone preferences in your user account.

Time Position Orientation Groundspeed Altitude Reporting Facility
EDT Latitude Longitude Course Direction KTS MPH feet Rate Location/Type
Tue 02:44:24 PM 41.9167 -87.9000 169° South 156 180 3,000  Level Chicago TRACON
Tue 02:45:24 PM 41.8667 -87.9000 180° South 193 222 4,400 1,742 Climbing Chicago TRACON
Tue 02:46:00 PM 41.7314 -87.6155 157° South  Level Estimated
Tue 02:46:28 PM 41.8142 -87.8808 165° South 225 259 6,600  Level Chicago Center
Tue 02:47:00 PM 41.6478 -87.5190 153° Southeast  Level Estimated
Tue 02:47:30 PM 41.7342 -87.8153 149° Southeast 285 328 10,000  Level Chicago Center
Tue 02:48:00 PM 41.5412 -87.5569 195° South  Level FlightAware Approximate
Tue 02:48:32 PM 41.6636 -87.7597 150° Southeast 292 336 12,300  Level Chicago Center
Tue 02:49:00 PM 41.4583 -87.4595 169° South  Level Estimated
Tue 02:49:34 PM 41.5794 -87.6922 149° Southeast 351 404 14,100  Level Chicago Center
Tue 02:50:36 PM 41.4919 -87.6233 149° Southeast 362 417 16,400 2,371 Climbing Chicago Center
Tue 02:51:38 PM 41.3994 -87.5681 156° South 365 420 19,000 1,839 Climbing Chicago Center
Tue 02:52:40 PM 41.2978 -87.5500 172° South 366 421 20,200 1,306 Climbing Chicago Center
Tue 02:53:42 PM 41.1708 -87.5256 172° South 376 433 21,700 1,452 Climbing Chicago Center
Tue 02:54:44 PM 41.0572 -87.4933 168° South 400 460 23,200 1,258 Climbing Chicago Center
Tue 02:55:46 PM 40.9417 -87.4625 169° South 417 480 24,300 1,152 Climbing Chicago Center
Tue 02:56:49 PM 40.8261 -87.4319 169° South 423 487 25,600 1,200 Climbing Chicago Center
Tue 02:57:51 PM 40.7075 -87.3986 168° South 431 496 26,800 1,839 Climbing Chicago Center
Tue 02:58:53 PM 40.5786 -87.3072 152° Southeast 436 502 29,400 1,714 Climbing Chicago Center
Tue 02:59:57 PM 40.4733 -87.2300 151° Southeast 434 499 30,400 1,381 Climbing Chicago Center
Tue 03:00:59 PM 40.3636 -87.1503 151° Southeast 434 499 32,300 1,548 Climbing Chicago Center
Tue 03:02:01 PM 40.2636 -87.0767 151° Southeast 419 482 33,600 1,056 Climbing Chicago Center
Tue 03:03:04 PM 40.1622 -87.0031 151° Southeast 418 481 34,500 1,049 Climbing Chicago Center
Tue 03:03:44 PM 40.0797 -86.9436 151° Southeast 417 480 35,400 882 Climbing Indianapolis Center
Tue 03:04:46 PM 39.9806 -86.8706 151° Southeast 412 474 36,000 581 Climbing Indianapolis Center
Tue 03:05:48 PM 39.8853 -86.7856 146° Southeast 422 486 36,600 484 Climbing Indianapolis Center
Tue 03:06:50 PM 39.8117 -86.6633 128° Southeast 433 498 37,000 195 Climbing Indianapolis Center
Tue 03:07:51 PM 39.7386 -86.5408 128° Southeast 432 497 37,000  Level Indianapolis Center
Tue 03:08:53 PM 39.6497 -86.3942 128° Southeast 441 507 37,000  Level Indianapolis Center
Tue 03:09:55 PM 39.5764 -86.2717 128° Southeast 443 510 37,000  Level Indianapolis Center
Tue 03:10:57 PM 39.5017 -86.1481 128° Southeast 441 507 37,000  Level Indianapolis Center
Tue 03:11:58 PM 39.4267 -86.0242 128° Southeast 441 507 37,000  Level Indianapolis Center
Tue 03:13:00 PM 39.3508 -85.8989 128° Southeast 443 510 37,000  Level Indianapolis Center
Tue 03:14:02 PM 39.2742 -85.7731 128° Southeast 447 514 37,000  Level Indianapolis Center
Tue 03:15:04 PM 39.1822 -85.6253 129° Southeast 442 509 37,000  Level Indianapolis Center
Tue 03:16:05 PM 39.1069 -85.5017 128° Southeast 441 507 37,000  Level Indianapolis Center
Tue 03:17:07 PM 39.0306 -85.3789 129° Southeast 441 507 37,000  Level Indianapolis Center
Tue 03:18:09 PM 38.9547 -85.2558 128° Southeast 441 507 37,000  Level Indianapolis Center
Tue 03:19:11 PM 38.8775 -85.1325 129° Southeast 443 510 37,000  Level Indianapolis Center
Tue 03:20:13 PM 38.8006 -85.0089 129° Southeast 443 510 37,000  Level Indianapolis Center
Tue 03:21:15 PM 38.7072 -84.8617 129° Southeast 442 509 37,000  Level Indianapolis Center
Tue 03:22:17 PM 38.6322 -84.7403 128° Southeast 443 510 37,000  Level Indianapolis Center
Tue 03:23:19 PM 38.5542 -84.6203 130° Southeast 439 505 37,000  Level Indianapolis Center
Tue 03:24:20 PM 38.4764 -84.4983 129° Southeast 441 507 37,000  Level Indianapolis Center
Tue 03:26:24 PM 38.3094 -84.2361 129° Southeast 439 505 37,000  Level Indianapolis Center
Tue 03:27:26 PM 38.2317 -84.1142 129° Southeast 441 507 37,000 -339 Level Indianapolis Center
Tue 03:28:28 PM 38.1533 -83.9925 129° Southeast 444 511 36,300 -823 Descending Indianapolis Center
Tue 03:29:30 PM 38.0753 -83.8733 130° Southeast 439 505 35,300 -919 Descending Indianapolis Center
Tue 03:30:32 PM 37.9953 -83.7503 129° Southeast 447 514 34,400 -919 Descending Indianapolis Center
Tue 03:31:34 PM 37.9161 -83.6269 129° Southeast 451 519 33,400 -677 Descending Indianapolis Center
Tue 03:32:36 PM 37.8214 -83.4831 130° Southeast 455 524 33,000 -195 Descending Indianapolis Center
Tue 03:33:37 PM 37.7264 -83.3764 138° Southeast 453 521 33,000  Level Indianapolis Center
Tue 03:34:39 PM 37.6247 -83.2800 143° Southeast 457 526 33,000  Level Indianapolis Center
Tue 03:35:41 PM 37.5247 -83.1803 142° Southeast 457 526 33,000 -387 Level Indianapolis Center
Tue 03:36:43 PM 37.4233 -83.0808 142° Southeast 458 527 32,200 -871 Descending Indianapolis Center
Tue 03:37:45 PM 37.3253 -82.9842 142° Southeast 448 516 31,200 -1,016 Descending Indianapolis Center
Tue 03:38:47 PM 37.2100 -82.8725 142° Southeast 446 513 30,100 -1,016 Descending Indianapolis Center
Tue 03:39:49 PM 37.1133 -82.7775 142° Southeast 438 504 29,100 -537 Descending Indianapolis Center
Tue 03:40:50 PM 37.0156 -82.6822 142° Southeast 438 504 29,000 -49 Descending Indianapolis Center
Tue 03:41:52 PM 36.9147 -82.5867 143° Southeast 445 512 29,000  Level Indianapolis Center
Tue 03:42:54 PM 36.8072 -82.5042 148° Southeast 449 517 29,000  Level Indianapolis Center
Tue 03:43:56 PM 36.7008 -82.4222 148° Southeast 447 514 29,000  Level Indianapolis Center
Tue 03:44:58 PM 36.5933 -82.3383 148° Southeast 454 522 29,000  Level Indianapolis Center
Tue 03:45:32 PM 36.5211 -82.2822 148° Southeast 459 528 29,000 -1,340 Level Atlanta Center
Tue 03:46:32 PM 36.4158 -82.2019 148° Southeast 459 528 26,900 -2,150 Descending Atlanta Center
Tue 03:47:32 PM 36.3122 -82.1217 148° Southeast 459 528 24,700 -1,900 Descending Atlanta Center
Tue 03:48:32 PM 36.2236 -82.0544 149° Southeast 435 501 23,100 -2,000 Descending Atlanta Center
Tue 03:49:32 PM 36.1225 -81.9850 151° Southeast 424 488 20,700 -2,350 Descending Atlanta Center
Tue 03:50:32 PM 36.0172 -81.9286 157° South 408 470 18,400 -1,950 Descending Atlanta Center
Tue 03:51:32 PM 35.9242 -81.8592 149° Southeast 398 458 16,800 -1,800 Descending Atlanta Center
Tue 03:52:32 PM 35.8372 -81.7847 145° Southeast 387 445 14,800 -2,150 Descending Atlanta Center
Tue 03:53:32 PM 35.7547 -81.7128 145° Southeast 374 430 12,500 -1,850 Descending Atlanta Center
Tue 03:54:32 PM 35.6739 -81.6433 145° Southeast 368 423 11,100 -750 Descending Atlanta Center
Tue 03:55:32 PM 35.6039 -81.5792 143° Southeast 335 386 11,000 -100 Descending Atlanta Center
Tue 03:56:32 PM 35.5522 -81.4939 127° Southeast 309 356 10,900 -400 Descending Atlanta Center
Tue 03:56:47 PM 35.5389 -81.4611 117° Southeast 305 351 10,500 -1,500 Descending Atlanta Center
Tue 03:57:32 PM 35.5208 -81.4003 110° East 297 342 9,400 -1,600 Descending Atlanta Center
Tue 03:57:47 PM 35.5075 -81.3650 115° Southeast 302 348 8,900 -1,500 Descending Atlanta Center
Tue 03:58:32 PM 35.4897 -81.3044 110° East 297 342 7,900 -1,377 Descending Atlanta Center
Tue 03:58:48 PM 35.4825 -81.2717 105° East 295 339 7,500 -1,200 Descending Atlanta Center
Tue 03:59:32 PM 35.4625 -81.2136 113° Southeast 297 342 6,700 -1,279 Descending Atlanta Center
Tue 03:59:49 PM 35.4556 -81.1806 104° East 283 326 6,200 -1,500 Descending Atlanta Center
Tue 04:00:32 PM 35.4375 -81.1253 112° Southeast 287 330 5,200 -1,395 Descending Atlanta Center

Login

Don't have an account? Register now (free) for customized features, flight alerts, and more!